Terminal Aerodrome Forecast
Issued by NWS

Home | Current Version | Previous Version | Text Only | Print | Product List | Glossary On
Versions: 1 2 3 4 5 6 7 8 9 10 11 12 13 14 15 16 17
000
FTUS45 KCYS 160500 RRA
TAFAIA
TAF
KAIA 160551Z 1606/1706 25014KT P6SM BKN080
     FM160900 31028G38KT 4SM -RASN BKN015 OVC025
     FM161100 31012KT P6SM SCT060
     FM161500 32024G33KT P6SM BKN060
     FM170200 VRB05KT P6SM BKN060=

USA.gov is the U.S. government's official web portal to all federal, state and local government web resources and services.